Time;durP1;ratioP1;P1;durP2;ratioP2;P2;SDS_P1;SDS_P2;PMS_P1;PMS_P2;Temp;Humidity;BMP_temperature;BMP_pressure;BME280_temperature;BME280_humidity;BME280_pressure;Samples;Min_cycle;Max_cycle;Signal;HPM_P1;HPM_P2
2022/12/13 00:00:46;;;;;;;20.77;9.60;;;-3.10;99.90;;;;;;4144177;28;20264;-61
2022/12/13 00:02:47;;;;;;;20.57;10.03;;;-3.10;99.90;;;;;;4144975;28;20733;-61
2022/12/13 00:04:48;;;;;;;16.57;9.07;;;-3.10;99.90;;;;;;4144918;28;20263;-61
2022/12/13 00:06:52;;;;;;;19.33;9.57;;;-3.10;99.90;;;;;;4161520;28;20852;-62
2022/12/13 00:08:54;;;;;;;13.43;7.33;;;-3.10;99.90;;;;;;4165193;28;20340;-63
2022/12/13 00:11:03;;;;;;;18.33;8.53;;;-3.00;99.90;;;;;;4166889;28;20254;-63
2022/12/13 00:13:04;;;;;;;16.37;7.80;;;-3.00;99.90;;;;;;4165102;28;20328;-64
2022/12/13 00:15:06;;;;;;;16.37;9.07;;;-3.00;99.90;;;;;;4166554;28;20761;-64
2022/12/13 00:17:07;;;;;;;21.60;8.93;;;-3.00;99.90;;;;;;4163960;28;20264;-63
2022/12/13 00:19:08;;;;;;;15.97;8.30;;;-2.90;99.90;;;;;;4157688;28;20271;-63
2022/12/13 00:21:15;;;;;;;18.97;8.33;;;-2.90;99.90;;;;;;4150969;28;20272;-62
2022/12/13 00:23:17;;;;;;;17.57;8.67;;;-3.00;99.90;;;;;;4150025;28;20275;-63
2022/12/13 00:25:20;;;;;;;16.70;8.77;;;-3.00;99.90;;;;;;4160459;28;20332;-63
2022/12/13 00:27:21;;;;;;;19.13;9.03;;;-3.00;99.90;;;;;;4154912;28;20337;-63
2022/12/13 00:29:23;;;;;;;21.90;9.73;;;-3.00;99.90;;;;;;4151440;28;20321;-62
2022/12/13 00:31:24;;;;;;;17.00;8.50;;;-3.00;99.90;;;;;;4148999;28;20283;-63
2022/12/13 00:33:26;;;;;;;14.57;8.10;;;-3.00;99.90;;;;;;4150403;28;20322;-63
2022/12/13 00:35:27;;;;;;;18.43;8.60;;;-3.00;99.90;;;;;;4150126;28;20325;-64
2022/12/13 00:37:28;;;;;;;20.17;10.30;;;-3.00;99.90;;;;;;4157495;28;21959;-61
2022/12/13 00:39:30;;;;;;;10.13;6.20;;;-3.00;99.90;;;;;;4149342;28;20325;-62
2022/12/13 00:41:34;;;;;;;19.73;8.13;;;-2.90;99.90;;;;;;4150774;28;20353;-62
2022/12/13 00:43:35;;;;;;;18.13;9.53;;;-2.90;99.90;;;;;;4152479;28;20290;-61
2022/12/13 00:45:37;;;;;;;15.67;8.07;;;-2.80;99.90;;;;;;4151802;28;20332;-61
2022/12/13 00:47:38;;;;;;;17.73;7.97;;;-2.80;99.90;;;;;;4148776;28;20766;-63
2022/12/13 00:49:39;;;;;;;17.47;8.27;;;-2.80;99.90;;;;;;4133917;28;20284;-62
2022/12/13 00:51:40;;;;;;;17.70;8.97;;;-2.90;99.90;;;;;;4148452;28;20316;-61
2022/12/13 00:53:42;;;;;;;16.93;8.53;;;-2.80;99.90;;;;;;4164028;28;20685;-63
2022/12/13 00:55:43;;;;;;;19.53;8.53;;;-2.90;99.90;;;;;;4161263;28;20694;-62
2022/12/13 00:57:44;;;;;;;19.87;8.83;;;-2.80;99.90;;;;;;4151341;28;20263;-63
2022/12/13 00:59:45;;;;;;;23.27;9.70;;;-2.90;99.90;;;;;;4153101;28;20279;-63
2022/12/13 01:01:46;;;;;;;21.90;9.43;;;-2.80;99.90;;;;;;4147411;28;20306;-63
2022/12/13 01:03:47;;;;;;;17.07;9.00;;;-2.80;99.90;;;;;;4149656;28;20868;-62
2022/12/13 01:05:48;;;;;;;20.53;9.10;;;-2.80;99.90;;;;;;4149124;28;20279;-63
2022/12/13 01:07:49;;;;;;;13.17;6.40;;;-2.80;99.90;;;;;;4164306;28;20282;-63
2022/12/13 01:09:51;;;;;;;17.53;7.60;;;-2.80;99.90;;;;;;4164997;28;20401;-62
2022/12/13 01:11:57;;;;;;;19.27;8.40;;;-2.80;99.90;;;;;;4158555;28;20275;-64
2022/12/13 01:13:58;;;;;;;19.40;10.33;;;-2.80;99.90;;;;;;4149191;28;20291;-62
2022/12/13 01:16:02;;;;;;;22.67;10.47;;;-2.80;99.90;;;;;;4150097;28;20279;-61
2022/12/13 01:18:03;;;;;;;24.33;11.43;;;-2.80;99.90;;;;;;4146418;28;20342;-63
2022/12/13 01:20:05;;;;;;;18.80;9.70;;;-2.80;99.90;;;;;;4147721;28;20275;-62
2022/12/13 01:22:06;;;;;;;21.23;9.70;;;-2.80;99.90;;;;;;4147035;28;20345;-62
2022/12/13 01:24:08;;;;;;;22.10;10.73;;;-2.80;99.90;;;;;;4161770;28;20321;-62
2022/12/13 01:26:12;;;;;;;22.63;9.93;;;-2.90;99.90;;;;;;4155569;28;20316;-63
2022/12/13 01:28:13;;;;;;;21.43;9.83;;;-2.90;99.90;;;;;;4161600;28;20336;-61
2022/12/13 01:30:14;;;;;;;19.73;9.10;;;-3.00;99.90;;;;;;4145290;28;20817;-62
2022/12/13 01:32:15;;;;;;;21.07;9.60;;;-3.10;99.90;;;;;;4149819;28;20616;-64
2022/12/13 01:34:19;;;;;;;16.37;8.30;;;-3.20;99.90;;;;;;4148076;28;20295;-61
2022/12/13 01:36:22;;;;;;;15.50;8.13;;;-3.20;99.90;;;;;;4162793;28;20278;-61
2022/12/13 01:38:23;;;;;;;15.67;7.70;;;-3.20;99.90;;;;;;4162913;28;20345;-62
2022/12/13 01:40:24;;;;;;;14.87;7.07;;;-3.30;99.90;;;;;;4162015;28;20725;-62
2022/12/13 01:42:25;;;;;;;15.43;7.13;;;-3.40;99.90;;;;;;4158371;28;20341;-63
2022/12/13 01:44:54;;;;;;;14.93;7.60;;;-3.40;99.90;;;;;;4145784;28;20342;-63
2022/12/13 01:46:55;;;;;;;17.83;7.67;;;-3.50;99.90;;;;;;4161814;28;20345;-62
2022/12/13 01:49:11;;;;;;;14.97;7.93;;;-3.50;99.90;;;;;;4145782;28;20271;-62
2022/12/13 01:51:15;;;;;;;17.17;8.13;;;-3.50;99.90;;;;;;4148290;28;20353;-63
2022/12/13 01:53:21;;;;;;;16.30;7.37;;;-3.40;99.90;;;;;;4150277;28;20658;-63
2022/12/13 01:55:26;;;;;;;17.63;7.47;;;-3.40;99.90;;;;;;4161223;28;20864;-62
2022/12/13 01:57:27;;;;;;;13.80;7.10;;;-3.40;99.90;;;;;;4157851;28;20272;-62
2022/12/13 01:59:28;;;;;;;17.80;7.40;;;-3.40;99.90;;;;;;4149324;28;20294;-61
2022/12/13 02:01:30;;;;;;;18.10;8.30;;;-3.40;99.90;;;;;;4158756;28;20287;-62
2022/12/13 02:03:32;;;;;;;17.60;8.70;;;-3.50;99.90;;;;;;4146680;28;20322;-62
2022/12/13 02:05:42;;;;;;;13.70;7.10;;;-3.40;99.90;;;;;;4150041;28;20679;-63
2022/12/13 02:07:45;;;;;;;17.40;8.27;;;-3.40;99.90;;;;;;4162739;28;20278;-64
2022/12/13 02:09:48;;;;;;;15.53;6.97;;;-3.40;99.90;;;;;;4157483;28;20489;-61
2022/12/13 02:11:50;;;;;;;14.23;7.40;;;-3.30;99.90;;;;;;4146725;28;20259;-63
2022/12/13 02:13:51;;;;;;;18.97;8.40;;;-3.40;99.90;;;;;;4146163;28;20682;-62
2022/12/13 02:16:15;;;;;;;17.80;8.10;;;-3.40;99.90;;;;;;4146395;28;20264;-62
2022/12/13 02:18:33;;;;;;;15.80;7.07;;;-3.40;99.90;;;;;;4146645;28;20267;-62
2022/12/13 02:20:58;;;;;;;17.10;7.87;;;-3.50;99.90;;;;;;4147180;28;20766;-62
2022/12/13 02:23:33;;;;;;;15.87;6.97;;;-3.50;99.90;;;;;;4146597;28;20816;-63
2022/12/13 02:26:06;;;;;;;13.97;7.33;;;-3.50;99.90;;;;;;4160529;28;20263;-63
2022/12/13 02:28:33;;;;;;;13.73;7.10;;;-3.40;99.90;;;;;;4160814;28;20762;-62
2022/12/13 02:30:42;;;;;;;13.20;6.63;;;-3.40;99.90;;;;;;4160797;28;20329;-64
2022/12/13 02:32:55;;;;;;;15.47;7.87;;;-3.40;99.90;;;;;;4151230;28;20325;-62
2022/12/13 02:35:10;;;;;;;17.10;7.77;;;-3.50;99.90;;;;;;4162418;28;20804;-62
2022/12/13 02:37:23;;;;;;;16.27;6.50;;;-3.50;99.90;;;;;;4159983;28;20630;-62
2022/12/13 02:39:31;;;;;;;14.13;6.97;;;-3.50;99.90;;;;;;4150884;28;20682;-62
2022/12/13 02:41:38;;;;;;;15.20;7.77;;;-3.50;99.90;;;;;;4150427;28;20406;-62
2022/12/13 02:43:47;;;;;;;13.60;6.67;;;-3.50;99.90;;;;;;4146468;28;20329;-62
2022/12/13 02:45:57;;;;;;;14.90;7.13;;;-3.50;99.90;;;;;;4145743;28;20267;-64
2022/12/13 02:48:01;;;;;;;12.73;6.47;;;-3.50;99.90;;;;;;4146590;28;20349;-61
2022/12/13 02:50:06;;;;;;;13.17;6.90;;;-3.50;99.90;;;;;;4145270;28;20541;-63
2022/12/13 02:52:10;;;;;;;13.27;7.63;;;-3.50;99.90;;;;;;4146411;28;20333;-63
2022/12/13 02:54:11;;;;;;;12.10;6.73;;;-3.50;99.90;;;;;;4148663;28;20695;-62
2022/12/13 02:56:13;;;;;;;13.27;7.27;;;-3.50;99.90;;;;;;4153370;28;20597;-62
2022/12/13 02:58:22;;;;;;;15.67;7.40;;;-3.60;99.90;;;;;;4146061;28;20345;-63
2022/12/13 03:00:38;;;;;;;13.40;6.97;;;-3.50;99.90;;;;;;4161498;28;20275;-62
2022/12/13 03:02:51;;;;;;;10.53;6.33;;;-3.60;99.90;;;;;;4154050;28;20271;-62
2022/12/13 03:08:01;;;;;;;13.20;7.13;;;-3.70;99.90;;;;;;4145609;28;20346;-62
2022/12/13 03:10:28;;;;;;;13.60;7.03;;;-3.70;99.90;;;;;;4144670;28;20248;-62
2022/12/13 03:15:24;;;;;;;12.43;6.50;;;-3.80;99.90;;;;;;4155097;28;20356;-61
2022/12/13 03:17:30;;;;;;;15.13;6.33;;;-3.80;99.90;;;;;;4161816;28;20309;-62
2022/12/13 03:19:31;;;;;;;12.63;6.10;;;-3.80;99.90;;;;;;4158786;28;20546;-63
2022/12/13 03:21:41;;;;;;;15.07;6.87;;;-3.70;99.90;;;;;;4160240;28;20301;-61
2022/12/13 03:23:44;;;;;;;16.88;7.68;;;-3.70;99.90;;;;;;4149483;28;20291;-64
2022/12/13 03:25:48;;;;;;;15.73;7.90;;;-3.70;99.90;;;;;;4153812;28;20428;-63
2022/12/13 03:27:50;;;;;;;13.77;7.07;;;-3.70;99.90;;;;;;4151389;28;20317;-63
2022/12/13 03:29:51;;;;;;;12.07;6.30;;;-3.70;99.90;;;;;;4160250;28;20290;-62
2022/12/13 03:31:53;;;;;;;11.93;6.27;;;-3.70;99.90;;;;;;4160154;28;20764;-62
2022/12/13 03:33:54;;;;;;;14.70;7.37;;;-3.60;99.90;;;;;;4154792;28;20271;-64
2022/12/13 03:35:55;;;;;;;14.07;6.23;;;-3.60;99.90;;;;;;4150929;28;20321;-63
2022/12/13 03:37:57;;;;;;;10.47;5.63;;;-3.70;99.90;;;;;;4144458;28;20275;-64
2022/12/13 03:39:58;;;;;;;11.90;7.23;;;-3.60;99.90;;;;;;4150885;28;20279;-62
2022/12/13 03:42:00;;;;;;;14.67;7.47;;;-3.60;99.90;;;;;;4160398;28;20270;-63
2022/12/13 03:44:06;;;;;;;16.33;7.53;;;-3.60;99.90;;;;;;4161678;28;20275;-62
2022/12/13 03:46:08;;;;;;;13.93;7.53;;;-3.60;99.90;;;;;;4157588;28;20278;-62
2022/12/13 03:48:09;;;;;;;15.70;6.87;;;-3.60;99.90;;;;;;4149781;28;20317;-64
2022/12/13 03:50:10;;;;;;;11.50;6.23;;;-3.60;99.90;;;;;;4144478;28;20293;-62
2022/12/13 03:52:11;;;;;;;14.20;7.07;;;-3.60;99.90;;;;;;4145954;28;20781;-63
2022/12/13 03:54:12;;;;;;;14.83;7.40;;;-3.60;99.90;;;;;;4153537;28;20298;-62
2022/12/13 03:56:13;;;;;;;11.30;6.10;;;-3.50;99.90;;;;;;4157389;28;20685;-61
2022/12/13 03:58:14;;;;;;;14.13;7.13;;;-3.50;99.90;;;;;;4160247;28;20263;-62
2022/12/13 04:00:16;;;;;;;18.03;6.93;;;-3.50;99.90;;;;;;4157690;28;20272;-61
2022/12/13 04:02:17;;;;;;;20.60;9.27;;;-3.60;99.90;;;;;;4143764;28;20275;-62
2022/12/13 04:04:18;;;;;;;15.30;8.10;;;-3.60;99.90;;;;;;4144781;28;20337;-64
2022/12/13 04:06:19;;;;;;;18.20;10.20;;;-3.80;99.90;;;;;;4154526;28;20336;-63
2022/12/13 04:08:20;;;;;;;18.33;7.77;;;-3.90;99.90;;;;;;4151252;28;20275;-62
2022/12/13 04:10:21;;;;;;;19.77;8.97;;;-4.00;99.90;;;;;;4144478;28;20416;-63
2022/12/13 04:14:42;;;;;;;15.00;7.30;;;-4.10;99.90;;;;;;4149090;28;20666;-63
2022/12/13 04:16:43;;;;;;;14.50;7.10;;;-4.10;99.90;;;;;;4158799;28;20275;-63
2022/12/13 04:18:44;;;;;;;14.53;7.03;;;-4.10;99.90;;;;;;4159079;28;20278;-61
2022/12/13 04:20:46;;;;;;;14.45;7.32;;;-4.10;99.90;;;;;;4157044;28;20306;-65
2022/12/13 04:22:47;;;;;;;15.90;8.30;;;-4.10;99.90;;;;;;4154422;28;20438;-61
2022/12/13 04:24:48;;;;;;;14.20;7.07;;;-4.10;99.90;;;;;;4136168;28;20279;-62
2022/12/13 04:26:49;;;;;;;13.43;7.20;;;-4.10;99.90;;;;;;4161231;28;20279;-64
2022/12/13 04:28:50;;;;;;;14.30;7.20;;;-4.00;99.90;;;;;;4160077;28;20758;-64
2022/12/13 04:30:51;;;;;;;16.10;7.63;;;-4.00;99.90;;;;;;4160631;28;20714;-64
2022/12/13 04:32:52;;;;;;;18.55;8.35;;;-4.00;99.90;;;;;;4158667;28;20267;-64
2022/12/13 04:34:54;;;;;;;16.87;7.93;;;-3.90;99.90;;;;;;4154580;28;20490;-62
2022/12/13 04:36:55;;;;;;;20.70;9.40;;;-3.90;99.90;;;;;;4139262;28;20273;-63
2022/12/13 04:38:56;;;;;;;31.83;10.90;;;-3.90;99.90;;;;;;4128219;28;20272;-62
2022/12/13 04:41:07;;;;;;;40.57;10.30;;;-4.00;99.90;;;;;;4143957;28;20283;-62
2022/12/13 04:43:08;;;;;;;55.27;12.60;;;-4.00;99.90;;;;;;4145919;28;20345;-63
2022/12/13 04:45:15;;;;;;;30.07;11.70;;;-3.90;99.90;;;;;;4147214;28;20272;-62
2022/12/13 04:47:16;;;;;;;27.30;11.63;;;-4.00;99.90;;;;;;4128385;28;20264;-60
2022/12/13 04:49:17;;;;;;;26.47;12.03;;;-4.00;99.90;;;;;;4127947;28;20771;-61
2022/12/13 04:51:18;;;;;;;25.97;11.83;;;-4.00;99.90;;;;;;4143732;28;20279;-63
2022/12/13 04:53:19;;;;;;;18.63;9.18;;;-4.00;99.90;;;;;;4147195;28;20330;-61
2022/12/13 04:55:21;;;;;;;22.80;10.30;;;-4.10;99.90;;;;;;4147555;28;20609;-60
2022/12/13 04:57:22;;;;;;;22.50;10.47;;;-4.10;99.90;;;;;;4156924;28;20271;-61
2022/12/13 04:59:24;;;;;;;20.17;9.93;;;-4.20;99.90;;;;;;4151771;28;20354;-62
2022/12/13 05:01:25;;;;;;;23.00;10.30;;;-4.20;99.90;;;;;;4159858;28;20678;-62
2022/12/13 05:03:26;;;;;;;20.90;9.50;;;-4.20;99.90;;;;;;4149721;28;20329;-62
2022/12/13 05:05:27;;;;;;;19.60;9.10;;;-4.20;99.90;;;;;;4151749;28;20767;-62
2022/12/13 05:07:29;;;;;;;20.07;9.27;;;-4.10;99.90;;;;;;4146513;28;20259;-62
2022/12/13 05:09:30;;;;;;;28.30;11.90;;;-4.00;99.90;;;;;;4147289;28;20276;-61
2022/12/13 05:11:31;;;;;;;29.80;10.93;;;-4.00;99.90;;;;;;4146258;28;20750;-63
2022/12/13 05:13:32;;;;;;;24.03;10.23;;;-4.00;99.90;;;;;;4147357;28;20287;-63
2022/12/13 05:15:34;;;;;;;33.93;12.97;;;-4.00;99.90;;;;;;4147168;28;20345;-63
2022/12/13 05:17:35;;;;;;;32.57;12.90;;;-3.90;99.90;;;;;;4146409;28;20283;-64
2022/12/13 05:19:36;;;;;;;23.00;10.50;;;-3.90;99.90;;;;;;4157343;28;20271;-61
2022/12/13 05:21:37;;;;;;;25.87;11.63;;;-3.90;99.90;;;;;;4157866;28;20272;-60
2022/12/13 05:23:39;;;;;;;28.80;11.87;;;-3.90;99.90;;;;;;4137930;28;20298;-62
2022/12/13 05:25:40;;;;;;;24.47;11.80;;;-4.00;99.90;;;;;;4137060;28;20346;-61
2022/12/13 05:27:41;;;;;;;19.63;10.33;;;-4.00;99.90;;;;;;4146420;28;20361;-61
2022/12/13 05:29:42;;;;;;;23.87;11.63;;;-4.00;99.90;;;;;;4145865;28;20342;-61
2022/12/13 05:31:43;;;;;;;28.77;12.77;;;-4.00;99.90;;;;;;4147111;28;20430;-61
2022/12/13 05:33:44;;;;;;;21.17;11.30;;;-4.00;99.90;;;;;;4145802;28;20601;-61
2022/12/13 05:35:46;;;;;;;28.03;12.23;;;-4.10;99.90;;;;;;4151757;28;20298;-60
2022/12/13 05:37:47;;;;;;;42.00;16.83;;;-4.10;99.90;;;;;;4146480;28;20342;-59
2022/12/13 05:39:48;;;;;;;24.80;11.90;;;-4.10;99.90;;;;;;4146811;28;20260;-61
2022/12/13 05:41:50;;;;;;;21.40;10.83;;;-4.10;99.90;;;;;;4145060;28;20286;-60
2022/12/13 05:43:51;;;;;;;25.73;11.30;;;-4.20;99.90;;;;;;4149697;28;20305;-60
2022/12/13 05:45:52;;;;;;;21.95;10.25;;;-4.10;99.90;;;;;;4152853;28;20271;-60
2022/12/13 05:47:53;;;;;;;22.00;9.93;;;-4.20;99.90;;;;;;4145106;28;20042;-63
2022/12/13 05:49:54;;;;;;;26.23;9.93;;;-4.20;99.90;;;;;;4148782;28;20332;-60
2022/12/13 05:51:55;;;;;;;20.33;10.43;;;-4.20;99.90;;;;;;4161369;28;20308;-61
2022/12/13 05:53:56;;;;;;;19.40;9.93;;;-4.30;99.90;;;;;;4160623;28;20271;-64
2022/12/13 05:56:01;;;;;;;19.38;8.13;;;-4.40;99.90;;;;;;4146365;28;20303;-60
2022/12/13 05:58:03;;;;;;;13.82;6.85;;;-4.50;99.90;;;;;;4146615;28;20037;-61
2022/12/13 06:00:06;;;;;;;14.88;7.50;;;-4.60;99.90;;;;;;4145016;28;20429;-59
2022/12/13 06:02:07;;;;;;;14.93;7.03;;;-4.80;99.90;;;;;;4146202;28;20034;-58
2022/12/13 06:04:09;;;;;;;16.35;7.70;;;-4.80;99.90;;;;;;4144885;28;20556;-60
2022/12/13 06:06:11;;;;;;;15.10;7.88;;;-4.80;99.90;;;;;;4146149;28;20038;-61
2022/12/13 06:08:12;;;;;;;17.38;7.18;;;-4.80;99.90;;;;;;4144972;28;20042;-60
2022/12/13 06:10:13;;;;;;;14.80;8.15;;;-4.80;99.90;;;;;;4146043;28;20429;-59
2022/12/13 06:12:17;;;;;;;16.52;8.07;;;-4.70;99.90;;;;;;4144707;28;20096;-60
2022/12/13 06:14:18;;;;;;;14.40;8.23;;;-4.70;99.90;;;;;;4145971;28;20474;-60
2022/12/13 06:16:19;;;;;;;14.07;6.88;;;-4.70;99.90;;;;;;4144563;28;20358;-60
2022/12/13 06:18:20;;;;;;;15.43;7.13;;;-4.80;99.90;;;;;;4146149;28;20458;-60
2022/12/13 06:20:21;;;;;;;13.70;7.03;;;-4.70;99.90;;;;;;4143744;28;20121;-60
2022/12/13 06:22:23;;;;;;;15.02;7.30;;;-4.70;99.90;;;;;;4145929;28;20037;-62
2022/12/13 06:24:24;;;;;;;14.88;8.00;;;-4.60;99.90;;;;;;4145466;28;20437;-60
2022/12/13 06:26:25;;;;;;;14.70;7.40;;;-4.40;99.90;;;;;;4145598;28;20034;-61
2022/12/13 06:28:26;;;;;;;16.33;7.90;;;-4.20;99.90;;;;;;4145776;28;20034;-59
2022/12/13 06:30:30;;;;;;;19.37;7.93;;;-3.90;99.90;;;;;;4144757;28;20683;-60
2022/12/13 06:32:31;;;;;;;18.90;8.20;;;-3.60;99.90;;;;;;4146262;28;20272;-61
2022/12/13 06:34:34;;;;;;;16.40;8.40;;;-3.30;99.90;;;;;;4144556;28;20346;-61
2022/12/13 06:36:35;;;;;;;20.87;10.40;;;-3.00;99.90;;;;;;4145736;28;20283;-61
2022/12/13 06:38:36;;;;;;;31.17;13.27;;;-2.80;99.90;;;;;;4144794;28;20271;-60
2022/12/13 06:40:38;;;;;;;41.17;14.70;;;-2.50;99.90;;;;;;4145253;28;20275;-62
2022/12/13 06:42:39;;;;;;;37.13;17.20;;;-2.20;99.90;;;;;;4144757;28;20337;-60
2022/12/13 06:44:41;;;;;;;39.63;17.07;;;-2.00;99.90;;;;;;4146175;28;20276;-63
2022/12/13 06:46:42;;;;;;;42.27;20.60;;;-2.00;99.90;;;;;;4144483;28;20314;-61
2022/12/13 06:48:43;;;;;;;53.77;21.60;;;-2.00;99.90;;;;;;4144659;28;20294;-61
2022/12/13 06:50:44;;;;;;;49.70;20.93;;;-2.10;99.90;;;;;;4144530;28;20629;-60
2022/12/13 06:52:46;;;;;;;55.50;21.33;;;-2.20;99.90;;;;;;4145670;28;20728;-60
2022/12/13 06:54:47;;;;;;;49.97;21.07;;;-2.30;99.90;;;;;;4144542;28;20259;-60
2022/12/13 06:56:48;;;;;;;51.67;20.57;;;-2.20;99.90;;;;;;4145154;28;20263;-63
2022/12/13 06:58:50;;;;;;;46.97;20.97;;;-2.20;99.90;;;;;;4145360;28;20263;-62
2022/12/13 07:01:07;;;;;;;46.43;20.23;;;-2.20;99.90;;;;;;4144214;28;20751;-61
2022/12/13 07:03:10;;;;;;;49.83;20.00;;;-2.10;99.90;;;;;;4144895;28;20287;-61
2022/12/13 07:05:11;;;;;;;48.47;19.23;;;-2.10;99.90;;;;;;4144067;28;21404;-62
2022/12/13 07:07:12;;;;;;;37.73;17.37;;;-1.90;99.90;;;;;;4145009;28;20298;-61
2022/12/13 07:09:13;;;;;;;43.97;18.10;;;-1.50;99.90;;;;;;4144497;28;20275;-61
2022/12/13 07:11:19;;;;;;;37.77;17.30;;;-1.10;99.90;;;;;;4145151;28;20271;-60
2022/12/13 07:13:21;;;;;;;39.87;17.13;;;-0.90;99.90;;;;;;4144865;28;20716;-61
2022/12/13 07:15:22;;;;;;;37.67;17.00;;;-0.60;99.90;;;;;;4144579;28;20353;-62
2022/12/13 07:17:23;;;;;;;34.43;16.43;;;-0.10;99.90;;;;;;4143832;28;20326;-61
2022/12/13 07:19:24;;;;;;;40.07;17.23;;;0.30;99.90;;;;;;4145043;28;20339;-60
2022/12/13 07:21:26;;;;;;;41.40;15.73;;;0.50;99.90;;;;;;4143991;28;20354;-62
2022/12/13 07:23:27;;;;;;;34.87;15.37;;;0.80;99.90;;;;;;4145285;28;20271;-61
2022/12/13 07:25:28;;;;;;;34.77;14.63;;;1.10;99.90;;;;;;4144214;28;20267;-61
2022/12/13 07:27:30;;;;;;;34.67;14.43;;;1.40;99.90;;;;;;4144819;28;20272;-61
2022/12/13 07:29:31;;;;;;;42.43;15.60;;;1.50;99.90;;;;;;4144266;28;20255;-61
2022/12/13 07:31:35;;;;;;;30.67;14.80;;;1.60;99.90;;;;;;4144267;28;20300;-62
2022/12/13 07:33:37;;;;;;;35.73;17.10;;;1.70;99.90;;;;;;4144849;28;20264;-63
2022/12/13 07:35:38;;;;;;;38.17;15.67;;;1.60;99.90;;;;;;4144502;28;20345;-61
2022/12/13 07:37:39;;;;;;;36.37;15.93;;;1.40;99.90;;;;;;4144829;28;20291;-62
2022/12/13 07:39:41;;;;;;;36.33;14.77;;;1.20;99.90;;;;;;4144183;28;20259;-61
2022/12/13 07:41:42;;;;;;;31.63;16.57;;;1.10;99.90;;;;;;4144817;28;20037;-62
2022/12/13 07:43:43;;;;;;;33.33;16.20;;;1.10;99.90;;;;;;4142886;28;20279;-61
2022/12/13 07:45:45;;;;;;;34.93;16.80;;;1.40;99.90;;;;;;4145429;28;20080;-61
2022/12/13 07:47:46;;;;;;;36.10;17.03;;;1.60;99.90;;;;;;4143893;28;20034;-60
2022/12/13 07:49:47;;;;;;;38.63;17.63;;;1.60;99.90;;;;;;4144769;28;20038;-61
2022/12/13 07:51:48;;;;;;;37.77;16.67;;;1.70;99.90;;;;;;4142404;28;20037;-60
2022/12/13 07:53:49;;;;;;;35.27;16.57;;;1.70;99.90;;;;;;4144660;28;20034;-61
2022/12/13 07:55:51;;;;;;;36.03;17.10;;;1.70;99.90;;;;;;4143301;28;20232;-61
2022/12/13 07:57:52;;;;;;;30.97;16.73;;;1.70;99.90;;;;;;4145158;28;20045;-60
2022/12/13 07:59:53;;;;;;;32.43;16.43;;;1.90;99.90;;;;;;4143782;28;20084;-61
2022/12/13 08:01:54;;;;;;;27.70;13.87;;;2.00;99.90;;;;;;4144997;28;20026;-60
2022/12/13 08:03:55;;;;;;;29.53;15.53;;;2.10;99.90;;;;;;4144045;28;20063;-59
2022/12/13 08:06:05;;;;;;;32.70;15.97;;;2.10;99.90;;;;;;4144274;28;20096;-62
2022/12/13 08:08:09;;;;;;;29.45;16.00;;;2.20;99.90;;;;;;4144825;28;20014;-60
2022/12/13 08:10:10;;;;;;;33.97;15.83;;;2.40;99.90;;;;;;4143760;28;20359;-61
2022/12/13 08:12:12;;;;;;;35.53;16.80;;;2.30;99.90;;;;;;4144326;28;20049;-60
2022/12/13 08:14:13;;;;;;;46.77;17.87;;;2.10;99.90;;;;;;4144404;28;20139;-60
2022/12/13 08:16:16;;;;;;;46.83;17.27;;;1.80;99.90;;;;;;4144774;28;20050;-60
2022/12/13 08:18:18;;;;;;;43.90;18.87;;;1.70;99.90;;;;;;4143833;28;20034;-61
2022/12/13 08:20:19;;;;;;;37.27;16.60;;;1.80;99.90;;;;;;4144718;28;20116;-61
2022/12/13 08:22:20;;;;;;;33.70;15.87;;;1.60;99.90;;;;;;4143819;28;20038;-61
2022/12/13 08:24:22;;;;;;;32.13;15.83;;;1.30;99.90;;;;;;4144798;28;20310;-61
2022/12/13 08:26:23;;;;;;;31.60;14.63;;;1.10;99.90;;;;;;4144909;28;20271;-61
2022/12/13 08:28:25;;;;;;;28.33;14.87;;;1.00;99.90;;;;;;4148465;28;20778;-60
2022/12/13 08:30:26;;;;;;;25.30;13.87;;;0.90;99.90;;;;;;4146714;28;20276;-61
2022/12/13 08:32:27;;;;;;;33.30;14.50;;;0.60;99.90;;;;;;4147413;28;20337;-61
2022/12/13 08:34:29;;;;;;;27.97;14.97;;;0.80;99.90;;;;;;4147344;28;20347;-62
2022/12/13 08:36:30;;;;;;;40.17;16.40;;;1.10;99.90;;;;;;4147621;28;20302;-62
2022/12/13 08:38:31;;;;;;;36.67;17.93;;;1.30;99.90;;;;;;4147036;28;20263;-60
2022/12/13 08:40:32;;;;;;;32.13;14.57;;;1.20;99.90;;;;;;4147100;28;20263;-61
2022/12/13 08:42:33;;;;;;;24.37;13.03;;;1.30;99.90;;;;;;4147779;28;20275;-61
2022/12/13 08:44:34;;;;;;;19.43;9.50;;;1.40;99.90;;;;;;4146988;28;20319;-62
2022/12/13 08:46:35;;;;;;;12.50;6.87;;;1.20;99.90;;;;;;4147264;28;20271;-61
2022/12/13 08:48:36;;;;;;;16.50;8.37;;;1.00;99.90;;;;;;4146424;28;20326;-61
2022/12/13 08:50:37;;;;;;;16.23;8.03;;;1.00;99.90;;;;;;4147721;28;20359;-62
2022/12/13 08:52:39;;;;;;;20.97;10.13;;;1.00;99.90;;;;;;4146520;28;20318;-62
2022/12/13 08:54:40;;;;;;;21.43;9.73;;;0.90;99.90;;;;;;4147790;28;20260;-61
2022/12/13 08:56:41;;;;;;;18.03;8.57;;;1.00;99.90;;;;;;4145810;28;20307;-61
2022/12/13 08:58:42;;;;;;;12.97;6.47;;;0.70;99.90;;;;;;4145930;28;20333;-62
2022/12/13 09:00:44;;;;;;;17.57;7.90;;;0.40;99.90;;;;;;4146213;28;20279;-61
2022/12/13 09:02:45;;;;;;;16.70;7.63;;;0.40;99.90;;;;;;4147569;28;20330;-62
2022/12/13 09:04:46;;;;;;;16.20;7.30;;;0.50;99.90;;;;;;4146748;28;20267;-63
2022/12/13 09:06:47;;;;;;;17.23;9.13;;;0.40;99.90;;;;;;4147305;28;20271;-62
2022/12/13 09:08:51;;;;;;;16.63;9.70;;;0.10;99.90;;;;;;4146820;28;20271;-63
2022/12/13 09:11:00;;;;;;;24.23;10.93;;;0.10;99.90;;;;;;4144130;28;20743;-60
2022/12/13 09:13:02;;;;;;;24.00;9.60;;;-0.10;99.90;;;;;;4147446;28;20698;-60
2022/12/13 09:15:03;;;;;;;18.13;8.57;;;-0.20;99.90;;;;;;4146408;28;20318;-61
2022/12/13 09:17:05;;;;;;;21.33;9.40;;;-0.30;99.90;;;;;;4147424;28;20460;-61
2022/12/13 09:19:06;;;;;;;18.90;8.97;;;-0.40;99.90;;;;;;4146038;28;20271;-61
2022/12/13 09:21:09;;;;;;;16.93;9.30;;;-0.50;99.90;;;;;;4147416;28;20387;-62
2022/12/13 09:23:10;;;;;;;15.90;9.10;;;-0.50;99.90;;;;;;4146427;28;20275;-59
2022/12/13 09:25:11;;;;;;;20.17;8.97;;;-0.70;99.90;;;;;;4147300;28;20734;-61
2022/12/13 09:27:12;;;;;;;19.77;10.03;;;-0.70;99.90;;;;;;4145886;28;20323;-61
2022/12/13 09:29:15;;;;;;;16.83;8.10;;;-0.70;99.90;;;;;;4147467;28;20793;-62
2022/12/13 09:31:18;;;;;;;18.50;9.73;;;-0.60;99.90;;;;;;4146161;28;20256;-60
2022/12/13 09:33:19;;;;;;;22.70;10.67;;;-0.60;99.90;;;;;;4147133;28;20727;-61
2022/12/13 09:35:20;;;;;;;15.77;6.87;;;-0.60;99.90;;;;;;4146461;28;20563;-60
2022/12/13 09:37:21;;;;;;;14.07;7.73;;;-0.50;99.90;;;;;;4145932;28;20735;-60
2022/12/13 09:39:22;;;;;;;17.03;7.07;;;-0.50;99.90;;;;;;4145963;28;20259;-61
2022/12/13 09:41:50;;;;;;;15.43;6.67;;;-0.60;99.90;;;;;;4145817;28;20295;-60
2022/12/13 09:43:56;;;;;;;16.17;7.17;;;-0.60;99.90;;;;;;4146181;28;20692;-62
2022/12/13 09:45:59;;;;;;;19.37;8.23;;;-0.50;99.90;;;;;;4146318;28;20317;-62
2022/12/13 09:48:01;;;;;;;13.87;8.13;;;-0.50;99.90;;;;;;4146183;28;20814;-62
2022/12/13 09:50:26;;;;;;;16.67;7.63;;;-0.40;99.90;;;;;;4145669;28;20836;-62
2022/12/13 09:52:34;;;;;;;17.37;8.20;;;-0.50;99.90;;;;;;4145930;28;20287;-60
2022/12/13 09:54:37;;;;;;;16.03;7.77;;;-0.60;99.90;;;;;;4145995;28;21025;-61
2022/12/13 09:56:38;;;;;;;14.67;7.73;;;-0.70;99.90;;;;;;4145989;28;20338;-60
2022/12/13 09:58:39;;;;;;;16.40;8.77;;;-0.70;99.90;;;;;;4145739;28;20743;-59
2022/12/13 10:00:40;;;;;;;14.17;7.43;;;-0.60;99.90;;;;;;4146454;28;20667;-60
2022/12/13 10:02:46;;;;;;;18.20;7.20;;;-0.50;99.90;;;;;;4145513;28;20260;-61
2022/12/13 10:04:47;;;;;;;15.23;7.57;;;-0.60;99.90;;;;;;4145964;28;20275;-60
2022/12/13 10:06:53;;;;;;;16.13;6.80;;;-0.70;99.90;;;;;;4145001;28;20663;-60
2022/12/13 10:08:58;;;;;;;14.73;7.50;;;-0.60;99.90;;;;;;4145043;28;20795;-61
2022/12/13 10:10:59;;;;;;;13.27;7.20;;;-0.60;99.90;;;;;;4144952;28;20731;-62
2022/12/13 10:13:17;;;;;;;15.77;7.93;;;-0.60;99.90;;;;;;4146488;28;20318;-61
2022/12/13 10:15:19;;;;;;;16.67;8.30;;;-0.60;99.90;;;;;;4145494;28;20267;-61
2022/12/13 10:17:23;;;;;;;15.03;6.83;;;-0.60;99.90;;;;;;4144540;28;20334;-61
2022/12/13 10:19:45;;;;;;;13.47;7.97;;;-0.60;99.90;;;;;;4144787;28;20295;-62
2022/12/13 10:21:47;;;;;;;20.07;7.43;;;-0.60;99.90;;;;;;4145931;28;20546;-62
2022/12/13 10:23:48;;;;;;;16.10;8.83;;;-0.70;99.90;;;;;;4143776;28;20294;-61
2022/12/13 10:25:55;;;;;;;13.67;6.77;;;-0.60;99.90;;;;;;4144938;28;20330;-63
2022/12/13 10:27:57;;;;;;;14.73;7.23;;;-0.50;99.90;;;;;;4145089;28;20838;-62
2022/12/13 10:30:11;;;;;;;16.83;7.37;;;-0.60;99.90;;;;;;4144046;28;20275;-60
2022/12/13 10:32:13;;;;;;;13.17;6.57;;;-0.50;99.90;;;;;;4145694;28;20743;-60
2022/12/13 10:34:29;;;;;;;16.77;6.90;;;-0.50;99.90;;;;;;4144887;28;20263;-62
2022/12/13 10:36:31;;;;;;;15.43;7.13;;;-0.60;99.90;;;;;;4145561;28;20295;-61
2022/12/13 10:38:40;;;;;;;22.30;6.83;;;-0.60;99.90;;;;;;4144806;28;20279;-62
2022/12/13 10:40:47;;;;;;;12.13;6.63;;;-0.60;99.90;;;;;;4145117;28;20307;-59